Huvudsida
METAR-TAF:

METAR-TAF

Flygplatser :

Jämsä, Finland

Halli Airport

latitud: 61-51N, longitud: 024-48E, höjd: 143 m

Aktuellt väderrapport

Denna rapport gjordes för 17 minuter sedan, klockan 03:20 UTC
Vind 3 kt från ost/sydost
Temperatur -10°C
Fuktighet 100%
Tryck 1000 hPa
Sikt 10 km eller mer
(lätt) kornsnö

METAR: EFHA 190320Z AUTO 11003KT 9999 -SG NCD M10/M10 Q1000

Tid: 05:37 (03:37 UTC)

Väderprognos

Denna rapport gjordes för 1 timme och 0 minuter sedan, klockan 02:37 UTC
Prognos gäller från 19 kl. 03 UTC till 19 kl. 12 UTC
Vind 2 kt varierande vindriktning
Sikt: 8000 m
Spridda moln på en höjd av 800 ft
Brutna moln på en höjd av 2500 ft
lätt snö
Temporärt
från 19 kl. 03 UTC till 19 kl. 09 UTC
Sikt: 4000 m
Brutna moln på en höjd av 800 ft

TAF: EFHA 190237Z 1903/1912 VRB02KT 8000 -SN SCT008 BKN025 TEMPO 1903/1909 4000 BKN008

Aktuella väderrapporter och prognoser från 4000 flygplatser (METAR- och TAF-rapporter).

De tillgängliga stationerna syns som gula och röda prickar på kartan.

För musen över prickarna för att se namnen på stationerna.

Klicka sedan för att få väderrapporter och prognoser.

För att ändra kartan: Klicka på de gröna knapparna med ett svart kors på för att zooma in; den gröna knappen med ett streck på för att zooma ut; eller på de gröna pilarna för angränsande kartor.


METAR-TAF: